sensor_id;sensor_type;location;lat;lon;timestamp;P1;durP1;ratioP1;P2;durP2;ratioP2
6255;SDS011;3161;48.794;9.784;2024-03-06T00:01:44;26.00;;;8.77;;
6255;SDS011;3161;48.794;9.784;2024-03-06T00:04:12;12.43;;;9.27;;
6255;SDS011;3161;48.794;9.784;2024-03-06T00:06:39;15.77;;;8.73;;
6255;SDS011;3161;48.794;9.784;2024-03-06T00:09:07;11.23;;;8.17;;
6255;SDS011;3161;48.794;9.784;2024-03-06T00:11:34;11.17;;;8.63;;
6255;SDS011;3161;48.794;9.784;2024-03-06T00:14:02;11.23;;;8.73;;
6255;SDS011;3161;48.794;9.784;2024-03-06T00:16:32;12.67;;;8.23;;
6255;SDS011;3161;48.794;9.784;2024-03-06T00:19:00;9.80;;;8.63;;
6255;SDS011;3161;48.794;9.784;2024-03-06T00:21:28;18.83;;;9.40;;
6255;SDS011;3161;48.794;9.784;2024-03-06T00:23:55;9.93;;;8.00;;
6255;SDS011;3161;48.794;9.784;2024-03-06T00:26:23;16.27;;;8.80;;
6255;SDS011;3161;48.794;9.784;2024-03-06T00:28:50;12.83;;;8.47;;
6255;SDS011;3161;48.794;9.784;2024-03-06T00:31:18;10.13;;;8.50;;
6255;SDS011;3161;48.794;9.784;2024-03-06T00:33:45;21.60;;;8.33;;
6255;SDS011;3161;48.794;9.784;2024-03-06T00:36:13;11.93;;;9.17;;
6255;SDS011;3161;48.794;9.784;2024-03-06T00:38:40;14.93;;;9.97;;
6255;SDS011;3161;48.794;9.784;2024-03-06T00:41:08;12.37;;;8.10;;
6255;SDS011;3161;48.794;9.784;2024-03-06T00:43:36;13.30;;;9.37;;
6255;SDS011;3161;48.794;9.784;2024-03-06T00:46:03;12.37;;;8.83;;
6255;SDS011;3161;48.794;9.784;2024-03-06T00:48:31;19.37;;;9.23;;
6255;SDS011;3161;48.794;9.784;2024-03-06T00:50:58;10.70;;;8.43;;
6255;SDS011;3161;48.794;9.784;2024-03-06T00:53:26;12.10;;;8.93;;
6255;SDS011;3161;48.794;9.784;2024-03-06T00:55:53;11.83;;;8.50;;
6255;SDS011;3161;48.794;9.784;2024-03-06T00:58:21;13.80;;;9.23;;
6255;SDS011;3161;48.794;9.784;2024-03-06T01:00:49;10.23;;;7.90;;
6255;SDS011;3161;48.794;9.784;2024-03-06T01:03:16;14.10;;;8.93;;
6255;SDS011;3161;48.794;9.784;2024-03-06T01:05:44;12.40;;;9.10;;
6255;SDS011;3161;48.794;9.784;2024-03-06T01:08:12;12.40;;;9.03;;
6255;SDS011;3161;48.794;9.784;2024-03-06T01:10:41;9.83;;;8.17;;
6255;SDS011;3161;48.794;9.784;2024-03-06T01:13:09;12.37;;;9.00;;
6255;SDS011;3161;48.794;9.784;2024-03-06T01:15:37;10.73;;;8.47;;
6255;SDS011;3161;48.794;9.784;2024-03-06T01:18:05;11.03;;;9.10;;
6255;SDS011;3161;48.794;9.784;2024-03-06T01:20:33;11.93;;;9.20;;
6255;SDS011;3161;48.794;9.784;2024-03-06T01:23:00;9.90;;;8.53;;
6255;SDS011;3161;48.794;9.784;2024-03-06T01:25:28;11.90;;;9.13;;
6255;SDS011;3161;48.794;9.784;2024-03-06T01:27:55;12.13;;;8.97;;
6255;SDS011;3161;48.794;9.784;2024-03-06T01:30:23;11.50;;;8.50;;
6255;SDS011;3161;48.794;9.784;2024-03-06T01:32:50;11.43;;;8.90;;
6255;SDS011;3161;48.794;9.784;2024-03-06T01:35:18;10.20;;;8.73;;
6255;SDS011;3161;48.794;9.784;2024-03-06T01:37:46;12.03;;;9.10;;
6255;SDS011;3161;48.794;9.784;2024-03-06T01:40:13;10.13;;;8.50;;
6255;SDS011;3161;48.794;9.784;2024-03-06T01:42:41;10.07;;;8.33;;
6255;SDS011;3161;48.794;9.784;2024-03-06T01:45:08;11.20;;;8.63;;
6255;SDS011;3161;48.794;9.784;2024-03-06T01:47:36;9.80;;;8.47;;
6255;SDS011;3161;48.794;9.784;2024-03-06T01:50:04;9.87;;;8.20;;
6255;SDS011;3161;48.794;9.784;2024-03-06T01:52:35;11.53;;;9.30;;
6255;SDS011;3161;48.794;9.784;2024-03-06T01:55:04;9.37;;;7.93;;
6255;SDS011;3161;48.794;9.784;2024-03-06T01:57:33;11.20;;;9.13;;
6255;SDS011;3161;48.794;9.784;2024-03-06T02:00:02;18.60;;;9.47;;
6255;SDS011;3161;48.794;9.784;2024-03-06T02:02:30;12.50;;;9.10;;
6255;SDS011;3161;48.794;9.784;2024-03-06T02:04:58;11.50;;;8.63;;
6255;SDS011;3161;48.794;9.784;2024-03-06T02:07:25;12.43;;;9.50;;
6255;SDS011;3161;48.794;9.784;2024-03-06T02:09:55;11.97;;;7.87;;
6255;SDS011;3161;48.794;9.784;2024-03-06T02:12:23;14.27;;;10.13;;
6255;SDS011;3161;48.794;9.784;2024-03-06T02:14:51;11.30;;;8.57;;
6255;SDS011;3161;48.794;9.784;2024-03-06T02:17:18;12.77;;;9.50;;
6255;SDS011;3161;48.794;9.784;2024-03-06T02:19:46;12.37;;;9.53;;
6255;SDS011;3161;48.794;9.784;2024-03-06T02:22:14;12.87;;;9.30;;
6255;SDS011;3161;48.794;9.784;2024-03-06T02:24:43;10.90;;;9.20;;
6255;SDS011;3161;48.794;9.784;2024-03-06T02:27:12;15.37;;;9.67;;
6255;SDS011;3161;48.794;9.784;2024-03-06T02:29:39;14.13;;;9.63;;
6255;SDS011;3161;48.794;9.784;2024-03-06T02:32:07;16.50;;;10.87;;
6255;SDS011;3161;48.794;9.784;2024-03-06T02:34:34;14.63;;;10.37;;
6255;SDS011;3161;48.794;9.784;2024-03-06T02:37:02;10.73;;;8.87;;
6255;SDS011;3161;48.794;9.784;2024-03-06T02:39:29;14.40;;;10.30;;
6255;SDS011;3161;48.794;9.784;2024-03-06T02:41:57;12.40;;;10.03;;
6255;SDS011;3161;48.794;9.784;2024-03-06T02:44:24;12.73;;;10.00;;
6255;SDS011;3161;48.794;9.784;2024-03-06T02:46:52;16.83;;;9.67;;
6255;SDS011;3161;48.794;9.784;2024-03-06T02:49:19;13.80;;;9.47;;
6255;SDS011;3161;48.794;9.784;2024-03-06T02:51:47;11.03;;;8.90;;
6255;SDS011;3161;48.794;9.784;2024-03-06T02:54:14;17.17;;;9.87;;
6255;SDS011;3161;48.794;9.784;2024-03-06T02:56:42;12.97;;;8.87;;
6255;SDS011;3161;48.794;9.784;2024-03-06T02:59:09;12.07;;;9.20;;
6255;SDS011;3161;48.794;9.784;2024-03-06T03:01:37;13.93;;;9.47;;
6255;SDS011;3161;48.794;9.784;2024-03-06T03:04:04;11.37;;;9.10;;
6255;SDS011;3161;48.794;9.784;2024-03-06T03:06:33;14.23;;;9.73;;
6255;SDS011;3161;48.794;9.784;2024-03-06T03:09:00;10.70;;;8.73;;
6255;SDS011;3161;48.794;9.784;2024-03-06T03:11:29;11.97;;;8.90;;
6255;SDS011;3161;48.794;9.784;2024-03-06T03:13:58;12.57;;;9.07;;
6255;SDS011;3161;48.794;9.784;2024-03-06T03:16:25;12.07;;;8.80;;
6255;SDS011;3161;48.794;9.784;2024-03-06T03:18:53;10.57;;;9.17;;
6255;SDS011;3161;48.794;9.784;2024-03-06T03:21:20;12.40;;;9.77;;
6255;SDS011;3161;48.794;9.784;2024-03-06T03:23:48;10.03;;;9.00;;
6255;SDS011;3161;48.794;9.784;2024-03-06T03:26:16;10.30;;;8.37;;
6255;SDS011;3161;48.794;9.784;2024-03-06T03:28:43;12.93;;;9.13;;
6255;SDS011;3161;48.794;9.784;2024-03-06T03:31:11;12.33;;;9.67;;
6255;SDS011;3161;48.794;9.784;2024-03-06T03:33:41;10.97;;;9.30;;
6255;SDS011;3161;48.794;9.784;2024-03-06T03:36:09;11.50;;;8.97;;
6255;SDS011;3161;48.794;9.784;2024-03-06T03:38:39;16.00;;;9.27;;
6255;SDS011;3161;48.794;9.784;2024-03-06T03:41:08;10.03;;;8.77;;
6255;SDS011;3161;48.794;9.784;2024-03-06T03:43:41;10.30;;;9.20;;
6255;SDS011;3161;48.794;9.784;2024-03-06T03:46:09;11.37;;;8.93;;
6255;SDS011;3161;48.794;9.784;2024-03-06T03:48:36;11.93;;;9.23;;
6255;SDS011;3161;48.794;9.784;2024-03-06T03:51:04;12.70;;;9.27;;
6255;SDS011;3161;48.794;9.784;2024-03-06T03:53:33;14.67;;;8.83;;
6255;SDS011;3161;48.794;9.784;2024-03-06T03:56:01;11.77;;;9.20;;
6255;SDS011;3161;48.794;9.784;2024-03-06T03:58:29;12.57;;;9.17;;
6255;SDS011;3161;48.794;9.784;2024-03-06T04:00:56;11.17;;;9.17;;
6255;SDS011;3161;48.794;9.784;2024-03-06T04:03:24;12.03;;;9.23;;
6255;SDS011;3161;48.794;9.784;2024-03-06T04:05:52;10.57;;;8.70;;
6255;SDS011;3161;48.794;9.784;2024-03-06T04:08:19;11.27;;;8.77;;
6255;SDS011;3161;48.794;9.784;2024-03-06T04:10:47;11.83;;;9.17;;
6255;SDS011;3161;48.794;9.784;2024-03-06T04:13:15;13.93;;;9.20;;
6255;SDS011;3161;48.794;9.784;2024-03-06T04:15:44;10.80;;;9.27;;
6255;SDS011;3161;48.794;9.784;2024-03-06T04:18:12;11.80;;;9.03;;
6255;SDS011;3161;48.794;9.784;2024-03-06T04:20:39;10.17;;;8.80;;
6255;SDS011;3161;48.794;9.784;2024-03-06T04:23:07;12.03;;;9.67;;
6255;SDS011;3161;48.794;9.784;2024-03-06T04:25:34;10.67;;;8.70;;
6255;SDS011;3161;48.794;9.784;2024-03-06T04:28:03;12.33;;;8.10;;
6255;SDS011;3161;48.794;9.784;2024-03-06T04:30:33;12.53;;;9.47;;
6255;SDS011;3161;48.794;9.784;2024-03-06T04:33:00;12.17;;;9.37;;
6255;SDS011;3161;48.794;9.784;2024-03-06T04:35:28;12.77;;;9.33;;
6255;SDS011;3161;48.794;9.784;2024-03-06T04:37:55;11.77;;;9.60;;
6255;SDS011;3161;48.794;9.784;2024-03-06T04:40:23;11.70;;;8.63;;
6255;SDS011;3161;48.794;9.784;2024-03-06T04:42:51;11.10;;;8.97;;
6255;SDS011;3161;48.794;9.784;2024-03-06T04:45:18;13.83;;;10.17;;
6255;SDS011;3161;48.794;9.784;2024-03-06T04:47:46;15.37;;;8.90;;
6255;SDS011;3161;48.794;9.784;2024-03-06T04:50:13;11.80;;;8.87;;
6255;SDS011;3161;48.794;9.784;2024-03-06T04:52:41;12.63;;;9.93;;
6255;SDS011;3161;48.794;9.784;2024-03-06T04:55:10;13.90;;;9.47;;
6255;SDS011;3161;48.794;9.784;2024-03-06T04:57:41;10.03;;;8.27;;
6255;SDS011;3161;48.794;9.784;2024-03-06T05:00:10;13.43;;;9.20;;
6255;SDS011;3161;48.794;9.784;2024-03-06T05:02:38;11.97;;;8.63;;
6255;SDS011;3161;48.794;9.784;2024-03-06T05:05:07;12.77;;;8.20;;
6255;SDS011;3161;48.794;9.784;2024-03-06T05:07:35;10.87;;;8.10;;
6255;SDS011;3161;48.794;9.784;2024-03-06T05:10:03;10.47;;;8.80;;
6255;SDS011;3161;48.794;9.784;2024-03-06T05:12:32;9.37;;;8.27;;
6255;SDS011;3161;48.794;9.784;2024-03-06T05:15:00;13.00;;;9.17;;
6255;SDS011;3161;48.794;9.784;2024-03-06T05:17:28;11.40;;;9.07;;
6255;SDS011;3161;48.794;9.784;2024-03-06T05:19:56;11.97;;;8.43;;
6255;SDS011;3161;48.794;9.784;2024-03-06T05:22:23;10.33;;;8.43;;
6255;SDS011;3161;48.794;9.784;2024-03-06T05:24:52;8.40;;;7.50;;
6255;SDS011;3161;48.794;9.784;2024-03-06T05:27:21;9.97;;;8.77;;
6255;SDS011;3161;48.794;9.784;2024-03-06T05:29:48;10.90;;;8.60;;
6255;SDS011;3161;48.794;9.784;2024-03-06T05:32:17;9.57;;;8.20;;
6255;SDS011;3161;48.794;9.784;2024-03-06T05:34:45;11.43;;;8.90;;
6255;SDS011;3161;48.794;9.784;2024-03-06T05:37:12;13.20;;;9.83;;
6255;SDS011;3161;48.794;9.784;2024-03-06T05:39:40;10.70;;;8.10;;
6255;SDS011;3161;48.794;9.784;2024-03-06T05:42:08;10.07;;;8.40;;
6255;SDS011;3161;48.794;9.784;2024-03-06T05:44:35;9.60;;;8.43;;
6255;SDS011;3161;48.794;9.784;2024-03-06T05:47:03;11.90;;;8.83;;
6255;SDS011;3161;48.794;9.784;2024-03-06T05:49:32;16.73;;;9.37;;
6255;SDS011;3161;48.794;9.784;2024-03-06T05:52:00;12.93;;;9.07;;
6255;SDS011;3161;48.794;9.784;2024-03-06T05:54:28;10.67;;;8.37;;
6255;SDS011;3161;48.794;9.784;2024-03-06T05:56:57;11.50;;;8.40;;
6255;SDS011;3161;48.794;9.784;2024-03-06T05:59:25;9.60;;;8.37;;
6255;SDS011;3161;48.794;9.784;2024-03-06T06:01:52;9.80;;;8.63;;
6255;SDS011;3161;48.794;9.784;2024-03-06T06:04:20;11.17;;;8.87;;
6255;SDS011;3161;48.794;9.784;2024-03-06T06:06:48;14.30;;;8.80;;
6255;SDS011;3161;48.794;9.784;2024-03-06T06:09:16;15.00;;;9.63;;
6255;SDS011;3161;48.794;9.784;2024-03-06T06:11:44;10.93;;;9.00;;
6255;SDS011;3161;48.794;9.784;2024-03-06T06:14:13;12.60;;;8.90;;
6255;SDS011;3161;48.794;9.784;2024-03-06T06:16:41;14.03;;;9.83;;
6255;SDS011;3161;48.794;9.784;2024-03-06T06:19:09;11.17;;;9.10;;
6255;SDS011;3161;48.794;9.784;2024-03-06T06:21:36;11.63;;;9.17;;
6255;SDS011;3161;48.794;9.784;2024-03-06T06:24:04;12.43;;;10.48;;
6255;SDS011;3161;48.794;9.784;2024-03-06T06:26:32;12.87;;;8.70;;
6255;SDS011;3161;48.794;9.784;2024-03-06T06:29:00;10.17;;;8.83;;
6255;SDS011;3161;48.794;9.784;2024-03-06T06:31:28;11.73;;;9.23;;
6255;SDS011;3161;48.794;9.784;2024-03-06T06:33:55;12.90;;;9.10;;
6255;SDS011;3161;48.794;9.784;2024-03-06T06:36:23;11.70;;;9.13;;
6255;SDS011;3161;48.794;9.784;2024-03-06T06:38:51;11.83;;;9.37;;
6255;SDS011;3161;48.794;9.784;2024-03-06T06:41:19;14.43;;;9.23;;
6255;SDS011;3161;48.794;9.784;2024-03-06T06:43:50;11.30;;;9.20;;
6255;SDS011;3161;48.794;9.784;2024-03-06T06:46:18;11.93;;;9.37;;
6255;SDS011;3161;48.794;9.784;2024-03-06T06:48:47;13.13;;;9.23;;
6255;SDS011;3161;48.794;9.784;2024-03-06T06:51:15;11.33;;;9.00;;
6255;SDS011;3161;48.794;9.784;2024-03-06T06:53:42;12.33;;;9.70;;
6255;SDS011;3161;48.794;9.784;2024-03-06T06:56:09;13.07;;;9.13;;
6255;SDS011;3161;48.794;9.784;2024-03-06T06:58:37;13.07;;;9.57;;
6255;SDS011;3161;48.794;9.784;2024-03-06T07:01:06;11.33;;;9.40;;
6255;SDS011;3161;48.794;9.784;2024-03-06T07:03:34;12.40;;;9.87;;
6255;SDS011;3161;48.794;9.784;2024-03-06T07:06:01;14.83;;;10.20;;
6255;SDS011;3161;48.794;9.784;2024-03-06T07:08:29;10.90;;;9.80;;
6255;SDS011;3161;48.794;9.784;2024-03-06T07:10:56;15.20;;;10.27;;
6255;SDS011;3161;48.794;9.784;2024-03-06T07:13:24;14.67;;;10.10;;
6255;SDS011;3161;48.794;9.784;2024-03-06T07:15:51;19.03;;;10.27;;
6255;SDS011;3161;48.794;9.784;2024-03-06T07:18:19;11.73;;;9.57;;
6255;SDS011;3161;48.794;9.784;2024-03-06T07:20:46;12.30;;;10.57;;
6255;SDS011;3161;48.794;9.784;2024-03-06T07:23:14;14.13;;;10.80;;
6255;SDS011;3161;48.794;9.784;2024-03-06T07:25:42;12.37;;;9.63;;
6255;SDS011;3161;48.794;9.784;2024-03-06T07:28:09;13.87;;;10.73;;
6255;SDS011;3161;48.794;9.784;2024-03-06T07:30:37;12.83;;;10.07;;
6255;SDS011;3161;48.794;9.784;2024-03-06T07:33:04;13.33;;;10.63;;
6255;SDS011;3161;48.794;9.784;2024-03-06T07:35:33;11.47;;;10.20;;
6255;SDS011;3161;48.794;9.784;2024-03-06T07:38:02;14.93;;;10.33;;
6255;SDS011;3161;48.794;9.784;2024-03-06T07:40:30;15.83;;;10.30;;
6255;SDS011;3161;48.794;9.784;2024-03-06T07:42:59;15.10;;;10.33;;
6255;SDS011;3161;48.794;9.784;2024-03-06T07:45:27;12.87;;;10.23;;
6255;SDS011;3161;48.794;9.784;2024-03-06T07:47:55;12.23;;;10.53;;
6255;SDS011;3161;48.794;9.784;2024-03-06T07:50:22;11.90;;;9.93;;
6255;SDS011;3161;48.794;9.784;2024-03-06T07:52:50;12.70;;;10.30;;
6255;SDS011;3161;48.794;9.784;2024-03-06T07:55:20;11.23;;;9.97;;
6255;SDS011;3161;48.794;9.784;2024-03-06T07:57:49;14.13;;;10.47;;
6255;SDS011;3161;48.794;9.784;2024-03-06T08:00:17;15.23;;;11.43;;
6255;SDS011;3161;48.794;9.784;2024-03-06T08:02:45;12.13;;;10.37;;
6255;SDS011;3161;48.794;9.784;2024-03-06T08:05:15;12.07;;;10.27;;
6255;SDS011;3161;48.794;9.784;2024-03-06T08:07:42;11.63;;;10.40;;
6255;SDS011;3161;48.794;9.784;2024-03-06T08:10:11;14.37;;;11.13;;
6255;SDS011;3161;48.794;9.784;2024-03-06T08:12:44;15.60;;;10.90;;
6255;SDS011;3161;48.794;9.784;2024-03-06T08:15:09;15.30;;;11.60;;
6255;SDS011;3161;48.794;9.784;2024-03-06T08:17:38;12.43;;;10.83;;
6255;SDS011;3161;48.794;9.784;2024-03-06T08:20:08;15.60;;;11.43;;
6255;SDS011;3161;48.794;9.784;2024-03-06T08:22:37;16.93;;;10.93;;
6255;SDS011;3161;48.794;9.784;2024-03-06T08:25:10;14.30;;;10.70;;
6255;SDS011;3161;48.794;9.784;2024-03-06T08:27:39;14.27;;;11.57;;
6255;SDS011;3161;48.794;9.784;2024-03-06T08:30:08;15.03;;;10.03;;
6255;SDS011;3161;48.794;9.784;2024-03-06T08:32:36;13.10;;;10.83;;
6255;SDS011;3161;48.794;9.784;2024-03-06T08:35:04;12.80;;;10.60;;
6255;SDS011;3161;48.794;9.784;2024-03-06T08:37:33;16.87;;;11.30;;
6255;SDS011;3161;48.794;9.784;2024-03-06T08:40:01;17.17;;;11.47;;
6255;SDS011;3161;48.794;9.784;2024-03-06T08:42:28;14.43;;;11.63;;
6255;SDS011;3161;48.794;9.784;2024-03-06T08:44:56;16.77;;;11.60;;
6255;SDS011;3161;48.794;9.784;2024-03-06T08:47:24;15.00;;;11.60;;
6255;SDS011;3161;48.794;9.784;2024-03-06T08:49:51;16.20;;;10.97;;
6255;SDS011;3161;48.794;9.784;2024-03-06T08:52:19;20.30;;;11.30;;
6255;SDS011;3161;48.794;9.784;2024-03-06T08:54:47;14.17;;;11.20;;
6255;SDS011;3161;48.794;9.784;2024-03-06T08:57:14;13.33;;;10.03;;
6255;SDS011;3161;48.794;9.784;2024-03-06T08:59:42;13.63;;;11.00;;
6255;SDS011;3161;48.794;9.784;2024-03-06T09:02:13;15.17;;;11.70;;
6255;SDS011;3161;48.794;9.784;2024-03-06T09:04:43;15.00;;;10.40;;
6255;SDS011;3161;48.794;9.784;2024-03-06T09:07:11;14.43;;;10.97;;
6255;SDS011;3161;48.794;9.784;2024-03-06T09:09:39;19.00;;;12.80;;
6255;SDS011;3161;48.794;9.784;2024-03-06T09:12:07;12.47;;;11.10;;
6255;SDS011;3161;48.794;9.784;2024-03-06T09:14:37;14.33;;;11.03;;
6255;SDS011;3161;48.794;9.784;2024-03-06T09:17:05;14.63;;;10.90;;
6255;SDS011;3161;48.794;9.784;2024-03-06T09:19:35;13.67;;;11.10;;
6255;SDS011;3161;48.794;9.784;2024-03-06T09:22:02;13.53;;;10.63;;
6255;SDS011;3161;48.794;9.784;2024-03-06T09:24:30;20.13;;;11.33;;
6255;SDS011;3161;48.794;9.784;2024-03-06T09:26:58;12.97;;;10.53;;
6255;SDS011;3161;48.794;9.784;2024-03-06T09:29:26;14.30;;;10.70;;
6255;SDS011;3161;48.794;9.784;2024-03-06T09:31:54;15.90;;;10.60;;
6255;SDS011;3161;48.794;9.784;2024-03-06T09:34:21;18.00;;;11.97;;
6255;SDS011;3161;48.794;9.784;2024-03-06T09:36:49;14.60;;;10.80;;
6255;SDS011;3161;48.794;9.784;2024-03-06T09:39:18;13.23;;;11.00;;
6255;SDS011;3161;48.794;9.784;2024-03-06T09:41:46;13.77;;;11.17;;
6255;SDS011;3161;48.794;9.784;2024-03-06T09:44:16;16.07;;;12.57;;
6255;SDS011;3161;48.794;9.784;2024-03-06T09:46:46;12.70;;;10.43;;
6255;SDS011;3161;48.794;9.784;2024-03-06T09:49:15;17.37;;;11.00;;
6255;SDS011;3161;48.794;9.784;2024-03-06T09:51:45;15.97;;;11.37;;
6255;SDS011;3161;48.794;9.784;2024-03-06T09:54:16;15.40;;;10.90;;
6255;SDS011;3161;48.794;9.784;2024-03-06T09:56:44;15.03;;;10.97;;
6255;SDS011;3161;48.794;9.784;2024-03-06T09:59:13;13.20;;;10.63;;
6255;SDS011;3161;48.794;9.784;2024-03-06T10:01:46;13.37;;;10.73;;
6255;SDS011;3161;48.794;9.784;2024-03-06T10:04:25;14.50;;;10.77;;
6255;SDS011;3161;48.794;9.784;2024-03-06T10:07:03;13.67;;;10.47;;
6255;SDS011;3161;48.794;9.784;2024-03-06T10:09:33;16.03;;;11.00;;
6255;SDS011;3161;48.794;9.784;2024-03-06T10:12:00;15.87;;;10.83;;
6255;SDS011;3161;48.794;9.784;2024-03-06T10:14:29;13.80;;;10.83;;
6255;SDS011;3161;48.794;9.784;2024-03-06T10:16:59;13.43;;;10.53;;
6255;SDS011;3161;48.794;9.784;2024-03-06T10:19:28;12.60;;;10.30;;
6255;SDS011;3161;48.794;9.784;2024-03-06T10:21:57;14.67;;;11.07;;
6255;SDS011;3161;48.794;9.784;2024-03-06T10:24:26;16.97;;;11.33;;
6255;SDS011;3161;48.794;9.784;2024-03-06T10:26:55;12.33;;;10.57;;
6255;SDS011;3161;48.794;9.784;2024-03-06T10:29:26;13.90;;;10.40;;
6255;SDS011;3161;48.794;9.784;2024-03-06T10:32:01;17.83;;;11.83;;
6255;SDS011;3161;48.794;9.784;2024-03-06T10:34:25;15.63;;;11.50;;
6255;SDS011;3161;48.794;9.784;2024-03-06T10:36:55;16.20;;;10.20;;
6255;SDS011;3161;48.794;9.784;2024-03-06T10:39:24;15.90;;;11.23;;
6255;SDS011;3161;48.794;9.784;2024-03-06T10:41:57;16.30;;;12.20;;
6255;SDS011;3161;48.794;9.784;2024-03-06T10:44:23;15.10;;;10.83;;
6255;SDS011;3161;48.794;9.784;2024-03-06T10:47:00;12.57;;;9.93;;
6255;SDS011;3161;48.794;9.784;2024-03-06T10:49:30;14.67;;;11.43;;
6255;SDS011;3161;48.794;9.784;2024-03-06T10:52:01;14.77;;;10.57;;
6255;SDS011;3161;48.794;9.784;2024-03-06T10:54:31;14.60;;;10.80;;
6255;SDS011;3161;48.794;9.784;2024-03-06T10:57:01;14.93;;;9.80;;
6255;SDS011;3161;48.794;9.784;2024-03-06T10:59:30;10.87;;;9.33;;
6255;SDS011;3161;48.794;9.784;2024-03-06T11:01:58;15.23;;;10.40;;
6255;SDS011;3161;48.794;9.784;2024-03-06T11:04:27;12.60;;;10.00;;
6255;SDS011;3161;48.794;9.784;2024-03-06T11:06:58;13.07;;;10.43;;
6255;SDS011;3161;48.794;9.784;2024-03-06T11:09:28;14.17;;;10.97;;
6255;SDS011;3161;48.794;9.784;2024-03-06T11:12:04;13.53;;;9.33;;
6255;SDS011;3161;48.794;9.784;2024-03-06T11:14:36;14.03;;;10.30;;
6255;SDS011;3161;48.794;9.784;2024-03-06T11:17:06;14.53;;;10.87;;
6255;SDS011;3161;48.794;9.784;2024-03-06T11:28:19;13.93;;;10.90;;
6255;SDS011;3161;48.794;9.784;2024-03-06T11:33:34;14.80;;;10.47;;
6255;SDS011;3161;48.794;9.784;2024-03-06T11:36:16;15.27;;;11.93;;
6255;SDS011;3161;48.794;9.784;2024-03-06T11:38:53;12.27;;;10.07;;
6255;SDS011;3161;48.794;9.784;2024-03-06T11:41:24;13.57;;;10.27;;
6255;SDS011;3161;48.794;9.784;2024-03-06T11:43:53;13.77;;;10.67;;
6255;SDS011;3161;48.794;9.784;2024-03-06T11:46:22;12.60;;;10.30;;
6255;SDS011;3161;48.794;9.784;2024-03-06T11:48:54;16.23;;;9.40;;
6255;SDS011;3161;48.794;9.784;2024-03-06T11:51:24;11.93;;;9.87;;
6255;SDS011;3161;48.794;9.784;2024-03-06T11:53:52;16.00;;;10.90;;
6255;SDS011;3161;48.794;9.784;2024-03-06T11:56:20;13.07;;;10.67;;
6255;SDS011;3161;48.794;9.784;2024-03-06T11:58:47;18.33;;;11.57;;
6255;SDS011;3161;48.794;9.784;2024-03-06T12:01:15;14.60;;;11.67;;
6255;SDS011;3161;48.794;9.784;2024-03-06T12:03:44;16.13;;;12.27;;
6255;SDS011;3161;48.794;9.784;2024-03-06T12:06:13;17.67;;;11.33;;
6255;SDS011;3161;48.794;9.784;2024-03-06T12:08:43;13.77;;;10.37;;
6255;SDS011;3161;48.794;9.784;2024-03-06T12:11:11;13.40;;;10.17;;
6255;SDS011;3161;48.794;9.784;2024-03-06T12:13:38;12.47;;;10.07;;
6255;SDS011;3161;48.794;9.784;2024-03-06T12:16:10;15.37;;;10.50;;
6255;SDS011;3161;48.794;9.784;2024-03-06T12:18:38;11.70;;;9.33;;
6255;SDS011;3161;48.794;9.784;2024-03-06T12:21:05;15.07;;;11.30;;
6255;SDS011;3161;48.794;9.784;2024-03-06T12:23:33;14.40;;;11.27;;
6255;SDS011;3161;48.794;9.784;2024-03-06T12:26:04;16.83;;;11.67;;
6255;SDS011;3161;48.794;9.784;2024-03-06T12:28:35;14.83;;;11.57;;
6255;SDS011;3161;48.794;9.784;2024-03-06T12:31:03;16.20;;;11.73;;
6255;SDS011;3161;48.794;9.784;2024-03-06T12:33:33;16.47;;;11.27;;
6255;SDS011;3161;48.794;9.784;2024-03-06T12:36:05;14.40;;;11.13;;
6255;SDS011;3161;48.794;9.784;2024-03-06T12:38:35;17.60;;;12.03;;
6255;SDS011;3161;48.794;9.784;2024-03-06T12:41:03;15.50;;;11.17;;
6255;SDS011;3161;48.794;9.784;2024-03-06T12:43:31;18.90;;;11.73;;
6255;SDS011;3161;48.794;9.784;2024-03-06T12:46:00;15.03;;;10.70;;
6255;SDS011;3161;48.794;9.784;2024-03-06T12:48:28;12.03;;;10.33;;
6255;SDS011;3161;48.794;9.784;2024-03-06T12:50:56;15.33;;;11.63;;
6255;SDS011;3161;48.794;9.784;2024-03-06T12:53:25;17.43;;;12.07;;
6255;SDS011;3161;48.794;9.784;2024-03-06T12:55:52;15.57;;;11.07;;
6255;SDS011;3161;48.794;9.784;2024-03-06T12:58:20;17.83;;;11.47;;
6255;SDS011;3161;48.794;9.784;2024-03-06T13:00:48;17.00;;;11.93;;
6255;SDS011;3161;48.794;9.784;2024-03-06T13:03:16;15.60;;;11.43;;
6255;SDS011;3161;48.794;9.784;2024-03-06T13:05:44;16.40;;;10.93;;
6255;SDS011;3161;48.794;9.784;2024-03-06T13:08:12;15.17;;;10.90;;
6255;SDS011;3161;48.794;9.784;2024-03-06T13:10:40;19.30;;;11.63;;
6255;SDS011;3161;48.794;9.784;2024-03-06T13:13:08;15.83;;;11.57;;
6255;SDS011;3161;48.794;9.784;2024-03-06T13:15:36;18.87;;;13.70;;
6255;SDS011;3161;48.794;9.784;2024-03-06T13:18:03;17.67;;;13.27;;
6255;SDS011;3161;48.794;9.784;2024-03-06T13:20:31;20.03;;;11.60;;
6255;SDS011;3161;48.794;9.784;2024-03-06T13:23:00;19.57;;;12.33;;
6255;SDS011;3161;48.794;9.784;2024-03-06T13:25:28;20.27;;;10.93;;
6255;SDS011;3161;48.794;9.784;2024-03-06T13:27:57;16.27;;;10.67;;
6255;SDS011;3161;48.794;9.784;2024-03-06T13:30:24;16.13;;;10.17;;
6255;SDS011;3161;48.794;9.784;2024-03-06T13:32:52;21.70;;;12.83;;
6255;SDS011;3161;48.794;9.784;2024-03-06T13:35:20;24.00;;;12.47;;
6255;SDS011;3161;48.794;9.784;2024-03-06T13:37:47;22.47;;;12.97;;
6255;SDS011;3161;48.794;9.784;2024-03-06T13:40:19;16.07;;;10.60;;
6255;SDS011;3161;48.794;9.784;2024-03-06T13:42:47;16.40;;;11.77;;
6255;SDS011;3161;48.794;9.784;2024-03-06T13:45:14;18.60;;;11.20;;
6255;SDS011;3161;48.794;9.784;2024-03-06T13:47:42;19.27;;;9.83;;
6255;SDS011;3161;48.794;9.784;2024-03-06T13:50:11;15.00;;;9.60;;
6255;SDS011;3161;48.794;9.784;2024-03-06T13:52:40;16.97;;;9.93;;
6255;SDS011;3161;48.794;9.784;2024-03-06T13:55:09;16.33;;;11.10;;
6255;SDS011;3161;48.794;9.784;2024-03-06T13:57:37;18.20;;;10.93;;
6255;SDS011;3161;48.794;9.784;2024-03-06T14:00:08;17.67;;;9.93;;
6255;SDS011;3161;48.794;9.784;2024-03-06T14:02:41;18.90;;;10.43;;
6255;SDS011;3161;48.794;9.784;2024-03-06T14:05:08;16.93;;;10.97;;
6255;SDS011;3161;48.794;9.784;2024-03-06T14:07:36;18.83;;;11.40;;
6255;SDS011;3161;48.794;9.784;2024-03-06T14:10:04;18.77;;;11.90;;
6255;SDS011;3161;48.794;9.784;2024-03-06T14:12:34;18.77;;;12.13;;
6255;SDS011;3161;48.794;9.784;2024-03-06T14:15:04;20.90;;;12.57;;
6255;SDS011;3161;48.794;9.784;2024-03-06T14:17:37;18.90;;;11.77;;
6255;SDS011;3161;48.794;9.784;2024-03-06T14:20:05;23.17;;;11.70;;
6255;SDS011;3161;48.794;9.784;2024-03-06T14:22:33;18.30;;;11.57;;
6255;SDS011;3161;48.794;9.784;2024-03-06T14:25:01;18.00;;;11.50;;
6255;SDS011;3161;48.794;9.784;2024-03-06T14:27:29;18.17;;;12.67;;
6255;SDS011;3161;48.794;9.784;2024-03-06T14:29:56;24.57;;;15.07;;
6255;SDS011;3161;48.794;9.784;2024-03-06T14:32:24;22.70;;;12.80;;
6255;SDS011;3161;48.794;9.784;2024-03-06T14:34:51;19.83;;;12.43;;
6255;SDS011;3161;48.794;9.784;2024-03-06T14:37:19;22.57;;;14.60;;
6255;SDS011;3161;48.794;9.784;2024-03-06T14:39:46;21.27;;;12.97;;
6255;SDS011;3161;48.794;9.784;2024-03-06T14:42:14;18.27;;;11.00;;
6255;SDS011;3161;48.794;9.784;2024-03-06T14:44:41;23.10;;;12.63;;
6255;SDS011;3161;48.794;9.784;2024-03-06T14:47:12;21.87;;;12.50;;
6255;SDS011;3161;48.794;9.784;2024-03-06T14:49:41;19.83;;;11.97;;
6255;SDS011;3161;48.794;9.784;2024-03-06T14:52:12;20.07;;;12.33;;
6255;SDS011;3161;48.794;9.784;2024-03-06T14:54:40;22.10;;;12.73;;
6255;SDS011;3161;48.794;9.784;2024-03-06T14:57:08;20.70;;;13.27;;
6255;SDS011;3161;48.794;9.784;2024-03-06T14:59:37;17.77;;;11.87;;
6255;SDS011;3161;48.794;9.784;2024-03-06T15:02:04;20.60;;;13.10;;
6255;SDS011;3161;48.794;9.784;2024-03-06T15:04:32;21.60;;;13.00;;
6255;SDS011;3161;48.794;9.784;2024-03-06T15:07:00;20.67;;;13.50;;
6255;SDS011;3161;48.794;9.784;2024-03-06T15:09:27;16.77;;;11.53;;
6255;SDS011;3161;48.794;9.784;2024-03-06T15:11:55;21.77;;;13.50;;
6255;SDS011;3161;48.794;9.784;2024-03-06T15:14:22;21.03;;;12.87;;